Terminal Aerodrome Forecast
Issued by NWS

Home | Current Version | Previous Version | Text Only | Print | Product List | Glossary On
Versions: 1 2 3 4 5 6 7 8 9 10 11 12 13 14 15 16 17 18 19 20 21 22
802
FTUS43 KDLH 160530
TAFHIB
TAF
KHIB 160530Z 1606/1706 34015KT P6SM OVC015
     FM160900 36008KT P6SM OVC009
     FM161400 09005KT P6SM BKN015
     FM162100 13009G15KT P6SM BKN025
     FM170100 14010G21KT P6SM BKN035=

USA.gov is the U.S. government's official web portal to all federal, state and local government web resources and services.